createdAt,value
2019-02-21T00:01:24.262Z,99.90
2019-02-21T00:03:52.666Z,99.90
2019-02-21T00:06:21.070Z,99.90
2019-02-21T00:08:49.505Z,99.90
2019-02-21T00:11:17.902Z,99.90
2019-02-21T00:13:46.309Z,99.90
2019-02-21T00:16:14.728Z,99.90
2019-02-21T00:18:43.139Z,99.90
2019-02-21T00:21:11.613Z,99.90
2019-02-21T00:23:40.050Z,99.90
2019-02-21T00:26:08.617Z,99.90
2019-02-21T00:28:37.537Z,99.90
2019-02-21T00:31:05.999Z,99.90
2019-02-21T00:33:34.414Z,99.90
2019-02-21T00:36:02.817Z,99.90
2019-02-21T00:38:31.246Z,99.90
2019-02-21T00:40:59.646Z,99.90
2019-02-21T00:43:28.052Z,99.90
2019-02-21T00:45:56.473Z,99.90
2019-02-21T00:48:24.898Z,99.90
2019-02-21T00:50:53.306Z,99.90
2019-02-21T00:53:21.816Z,99.90
2019-02-21T00:55:50.222Z,99.90
2019-02-21T00:58:18.613Z,99.90
2019-02-21T01:00:47.071Z,99.90
2019-02-21T01:03:15.527Z,99.90
2019-02-21T01:05:43.954Z,99.90
2019-02-21T01:08:12.654Z,99.90
2019-02-21T01:10:41.056Z,99.90
2019-02-21T01:13:09.457Z,99.90
2019-02-21T01:15:37.886Z,99.90
2019-02-21T01:18:06.294Z,99.90
2019-02-21T01:20:34.787Z,99.90
2019-02-21T01:23:03.215Z,99.90
2019-02-21T01:25:31.787Z,99.90
2019-02-21T01:28:00.902Z,99.90
2019-02-21T01:30:29.309Z,99.90
2019-02-21T01:32:57.782Z,99.90
2019-02-21T01:35:26.206Z,99.90
2019-02-21T01:37:54.709Z,99.90
2019-02-21T01:40:23.138Z,99.90
2019-02-21T01:42:51.541Z,99.90
2019-02-21T01:45:19.959Z,99.90
2019-02-21T01:47:48.386Z,99.90
2019-02-21T01:50:16.798Z,99.90
2019-02-21T01:52:45.210Z,99.90
2019-02-21T01:55:13.631Z,99.90
2019-02-21T01:57:42.035Z,99.90
2019-02-21T02:00:12.551Z,99.90
2019-02-21T02:02:40.982Z,99.90
2019-02-21T02:05:09.558Z,99.90
2019-02-21T02:07:38.629Z,99.90
2019-02-21T02:10:09.098Z,99.90
2019-02-21T02:12:37.718Z,99.90
2019-02-21T02:15:08.455Z,99.90
2019-02-21T02:17:37.173Z,99.90
2019-02-21T02:20:17.547Z,99.90
2019-02-21T02:22:45.965Z,99.90
2019-02-21T02:25:14.373Z,99.90
2019-02-21T02:27:42.818Z,99.90
2019-02-21T02:30:11.283Z,99.90
2019-02-21T02:32:39.698Z,99.90
2019-02-21T02:35:08.322Z,99.90
2019-02-21T02:37:36.731Z,99.90
2019-02-21T02:40:06.069Z,99.90
2019-02-21T02:42:34.487Z,99.90
2019-02-21T02:45:02.951Z,99.90
2019-02-21T02:47:31.446Z,99.90
2019-02-21T02:49:59.845Z,99.90
2019-02-21T02:52:28.262Z,99.90
2019-02-21T02:54:56.667Z,99.90
2019-02-21T02:57:25.094Z,99.90
2019-02-21T02:59:53.493Z,99.90
2019-02-21T03:02:21.926Z,99.90
2019-02-21T03:04:50.360Z,99.90
2019-02-21T03:07:19.029Z,99.90
2019-02-21T03:09:47.467Z,99.90
2019-02-21T03:12:15.934Z,99.90
2019-02-21T03:14:44.369Z,99.90
2019-02-21T03:17:12.770Z,99.90
2019-02-21T03:19:41.169Z,99.90
2019-02-21T03:22:09.597Z,99.90
2019-02-21T03:24:38.012Z,99.90
2019-02-21T03:27:06.417Z,99.90
2019-02-21T03:29:34.829Z,99.90
2019-02-21T03:32:03.274Z,99.80
2019-02-21T03:34:31.678Z,99.70
2019-02-21T03:37:00.212Z,99.60
2019-02-21T03:39:28.614Z,99.70
2019-02-21T03:41:57.015Z,99.90
2019-02-21T03:44:25.482Z,99.80
2019-02-21T03:46:53.908Z,99.60
2019-02-21T03:49:22.313Z,99.60
2019-02-21T03:51:50.743Z,99.60
2019-02-21T03:54:19.193Z,99.50
2019-02-21T03:56:47.598Z,99.50
2019-02-21T03:59:16.091Z,99.40
2019-02-21T04:01:44.477Z,99.40
2019-02-21T04:04:12.884Z,99.30
2019-02-21T04:06:41.314Z,99.20
2019-02-21T04:09:09.711Z,99.10
2019-02-21T04:11:38.126Z,99.10
2019-02-21T04:14:06.637Z,99.10
2019-02-21T04:16:35.053Z,99.20
2019-02-21T04:19:03.482Z,99.50
2019-02-21T04:21:31.963Z,99.20
2019-02-21T04:24:00.360Z,99.40
2019-02-21T04:26:28.846Z,99.50
2019-02-21T04:28:57.253Z,99.50
2019-02-21T04:31:25.685Z,99.40
2019-02-21T04:33:54.085Z,99.60
2019-02-21T04:36:23.671Z,99.40
2019-02-21T04:38:52.281Z,99.30
2019-02-21T04:41:20.708Z,99.20
2019-02-21T04:43:49.107Z,99.20
2019-02-21T04:46:17.534Z,99.30
2019-02-21T04:48:45.955Z,99.30
2019-02-21T04:51:14.359Z,99.20
2019-02-21T04:53:42.777Z,99.30
2019-02-21T04:56:11.209Z,99.40
2019-02-21T04:58:39.736Z,99.30
2019-02-21T05:01:08.186Z,99.30
2019-02-21T05:03:36.602Z,99.40
2019-02-21T05:06:05.025Z,99.30
2019-02-21T05:08:33.436Z,99.20
2019-02-21T05:11:01.854Z,99.30
2019-02-21T05:13:30.416Z,99.20
2019-02-21T05:15:58.869Z,99.30
2019-02-21T05:18:27.292Z,99.30
2019-02-21T05:20:55.691Z,99.20
2019-02-21T05:23:24.124Z,99.10
2019-02-21T05:25:52.521Z,99.20
2019-02-21T05:28:28.261Z,99.40
2019-02-21T05:30:58.424Z,99.40
2019-02-21T05:33:43.911Z,99.60
2019-02-21T05:36:32.301Z,99.60
2019-02-21T05:39:18.606Z,99.70
2019-02-21T05:42:00.437Z,99.80
2019-02-21T05:44:33.407Z,99.90
2019-02-21T05:47:18.781Z,99.90
2019-02-21T05:49:55.024Z,99.90
2019-02-21T05:52:25.085Z,99.90
2019-02-21T05:54:55.135Z,99.90
2019-02-21T05:57:34.474Z,99.90
2019-02-21T06:00:14.408Z,99.90
2019-02-21T06:02:53.125Z,99.90
2019-02-21T06:05:21.730Z,99.90
2019-02-21T06:08:09.882Z,99.90
2019-02-21T06:10:39.918Z,99.90
2019-02-21T06:13:18.871Z,99.90
2019-02-21T06:16:04.205Z,99.90
2019-02-21T06:18:34.277Z,99.90
2019-02-21T06:21:04.324Z,99.90
2019-02-21T06:23:39.396Z,99.90
2019-02-21T06:26:09.053Z,99.90
2019-02-21T06:28:48.094Z,99.90
2019-02-21T06:31:16.510Z,99.90
2019-02-21T06:33:44.913Z,99.90
2019-02-21T06:36:13.338Z,99.90
2019-02-21T06:38:41.746Z,99.90
2019-02-21T06:41:10.232Z,99.90
2019-02-21T06:43:38.659Z,99.90
2019-02-21T06:46:07.070Z,99.90
2019-02-21T06:48:35.510Z,99.90
2019-02-21T06:51:03.905Z,99.90
2019-02-21T06:53:32.301Z,99.70
2019-02-21T06:56:00.869Z,99.60
2019-02-21T06:58:29.259Z,99.50
2019-02-21T07:00:57.662Z,99.30
2019-02-21T07:03:26.221Z,99.40
2019-02-21T07:05:54.699Z,99.40
2019-02-21T07:08:25.078Z,99.20
2019-02-21T07:10:53.324Z,99.30
2019-02-21T07:13:26.609Z,99.20
2019-02-21T07:15:51.872Z,99.20
2019-02-21T07:18:20.346Z,99.30
2019-02-21T07:20:48.754Z,99.30
2019-02-21T07:23:17.176Z,99.20
2019-02-21T07:25:47.153Z,99.10
2019-02-21T07:28:16.117Z,98.80
2019-02-21T07:30:45.038Z,98.90
2019-02-21T07:33:13.441Z,98.90
2019-02-21T07:35:41.910Z,98.90
2019-02-21T07:38:10.309Z,99.20
2019-02-21T07:40:38.709Z,98.80
2019-02-21T07:43:07.152Z,99.00
2019-02-21T07:45:36.515Z,98.70
2019-02-21T07:48:05.058Z,98.60
2019-02-21T07:50:33.485Z,98.30
2019-02-21T07:53:02.873Z,98.80
2019-02-21T07:55:31.605Z,98.40
2019-02-21T07:58:00.005Z,98.40
2019-02-21T08:00:28.410Z,98.30
2019-02-21T08:02:57.209Z,98.00
2019-02-21T08:05:25.609Z,98.30
2019-02-21T08:07:54.023Z,98.30
2019-02-21T08:10:32.789Z,98.20
2019-02-21T08:12:53.638Z,98.30
2019-02-21T08:15:22.178Z,98.10
2019-02-21T08:17:50.981Z,98.00
2019-02-21T08:20:19.392Z,97.80
2019-02-21T08:22:47.779Z,97.50
2019-02-21T08:25:18.993Z,97.40
2019-02-21T08:27:46.340Z,97.10
2019-02-21T08:30:15.601Z,97.00
2019-02-21T08:33:07.237Z,96.60
2019-02-21T08:35:35.650Z,96.60
2019-02-21T08:38:04.091Z,96.60
2019-02-21T08:40:32.662Z,96.50
2019-02-21T08:43:03.871Z,96.40
2019-02-21T08:45:31.195Z,96.20
2019-02-21T08:47:59.634Z,96.20
2019-02-21T08:50:28.031Z,96.10
2019-02-21T08:52:56.438Z,96.30
2019-02-21T08:55:25.009Z,96.20
2019-02-21T08:57:53.414Z,96.30
2019-02-21T09:00:21.808Z,96.30
2019-02-21T09:02:50.232Z,96.40
2019-02-21T09:05:18.745Z,96.20
2019-02-21T09:07:47.149Z,96.00
2019-02-21T09:10:15.733Z,96.40
2019-02-21T09:12:48.432Z,95.90
2019-02-21T09:15:17.527Z,96.10
2019-02-21T09:17:45.930Z,95.60
2019-02-21T09:20:14.360Z,95.60
2019-02-21T09:22:42.763Z,95.10
2019-02-21T09:25:12.850Z,94.90
2019-02-21T09:27:41.297Z,94.40
2019-02-21T09:30:14.990Z,94.00
2019-02-21T09:32:43.426Z,93.90
2019-02-21T09:35:12.019Z,93.70
2019-02-21T09:37:40.412Z,93.70
2019-02-21T09:40:11.084Z,93.50
2019-02-21T09:42:39.490Z,93.10
2019-02-21T09:45:10.710Z,92.90
2019-02-21T09:47:40.009Z,92.60
2019-02-21T09:50:09.758Z,92.40
2019-02-21T09:52:38.174Z,92.10
2019-02-21T09:55:09.843Z,92.00
2019-02-21T09:57:38.237Z,91.70
2019-02-21T10:00:10.662Z,91.30
2019-02-21T10:02:39.083Z,91.00
2019-02-21T10:05:08.132Z,90.60
2019-02-21T10:07:37.221Z,90.10
2019-02-21T10:10:09.393Z,90.00
2019-02-21T10:12:38.131Z,90.00
2019-02-21T10:15:09.991Z,89.70
2019-02-21T10:17:38.399Z,89.90
2019-02-21T10:20:10.165Z,89.60
2019-02-21T10:22:38.571Z,89.20
2019-02-21T10:25:13.374Z,88.80
2019-02-21T10:27:41.815Z,88.80
2019-02-21T10:30:13.542Z,88.80
2019-02-21T10:32:42.062Z,88.90
2019-02-21T10:35:10.626Z,88.70
2019-02-21T10:37:39.046Z,88.60
2019-02-21T10:40:10.092Z,88.70
2019-02-21T10:42:38.792Z,88.50
2019-02-21T10:45:15.085Z,88.40
2019-02-21T10:47:43.485Z,87.70
2019-02-21T10:50:19.530Z,86.80
2019-02-21T10:52:48.733Z,85.60
2019-02-21T10:55:18.713Z,85.50
2019-02-21T10:57:47.288Z,85.40
2019-02-21T11:00:29.483Z,85.30
2019-02-21T11:02:58.061Z,86.00
2019-02-21T11:05:26.498Z,86.10
2019-02-21T11:07:54.923Z,86.50
2019-02-21T11:10:30.476Z,87.20
2019-02-21T11:12:58.882Z,87.70
2019-02-21T11:15:27.398Z,87.30
2019-02-21T11:17:55.803Z,86.80
2019-02-21T11:20:24.408Z,86.30
2019-02-21T11:22:52.835Z,84.80
2019-02-21T11:25:21.245Z,81.90
2019-02-21T11:27:49.722Z,80.10
2019-02-21T11:30:19.605Z,77.90
2019-02-21T11:32:48.009Z,76.10
2019-02-21T11:35:16.690Z,74.30
2019-02-21T11:37:46.996Z,74.10
2019-02-21T11:40:16.855Z,74.10
2019-02-21T11:42:45.902Z,73.80
2019-02-21T11:45:19.171Z,74.30
2019-02-21T11:47:47.565Z,75.50
2019-02-21T11:50:17.911Z,76.20
2019-02-21T11:52:46.332Z,76.50
2019-02-21T11:55:17.623Z,77.10
2019-02-21T11:57:46.044Z,76.50
2019-02-21T12:00:19.313Z,77.50
2019-02-21T12:02:47.948Z,78.10
2019-02-21T12:05:19.504Z,77.40
2019-02-21T12:07:47.398Z,77.00
2019-02-21T12:10:15.970Z,76.50
2019-02-21T12:12:44.373Z,76.40
2019-02-21T12:15:14.021Z,76.00
2019-02-21T12:17:43.245Z,74.70
2019-02-21T12:20:14.466Z,72.30
2019-02-21T12:22:42.884Z,70.50
2019-02-21T12:25:13.766Z,71.70
2019-02-21T12:27:42.165Z,72.10
2019-02-21T12:30:15.700Z,72.30
2019-02-21T12:32:44.138Z,70.80
2019-02-21T12:35:12.613Z,69.00
2019-02-21T12:37:41.108Z,67.70
2019-02-21T12:40:15.660Z,69.50
2019-02-21T12:42:44.139Z,71.50
2019-02-21T12:45:15.088Z,70.10
2019-02-21T12:47:50.753Z,71.00
2019-02-21T12:50:14.246Z,71.50
2019-02-21T12:52:42.642Z,72.00
2019-02-21T12:55:12.091Z,71.80
2019-02-21T12:57:40.512Z,71.90
2019-02-21T13:00:22.172Z,71.60
2019-02-21T13:02:50.574Z,72.70
2019-02-21T13:05:19.072Z,72.40
2019-02-21T13:07:47.501Z,72.20
2019-02-21T13:10:23.897Z,72.30
2019-02-21T13:12:52.524Z,72.70
2019-02-21T13:15:20.966Z,73.40
2019-02-21T13:17:51.050Z,73.70
2019-02-21T13:20:19.501Z,73.00
2019-02-21T13:22:47.948Z,73.00
2019-02-21T13:25:17.886Z,73.30
2019-02-21T13:27:46.286Z,73.00
2019-02-21T13:30:16.192Z,72.50
2019-02-21T13:32:44.598Z,73.10
2019-02-21T13:35:13.283Z,74.00
2019-02-21T13:37:41.820Z,74.30
2019-02-21T13:40:12.394Z,74.70
2019-02-21T13:42:40.801Z,75.00
2019-02-21T13:45:10.890Z,75.60
2019-02-21T13:47:39.432Z,75.50
2019-02-21T13:50:10.684Z,74.90
2019-02-21T13:52:39.204Z,72.20
2019-02-21T13:55:08.177Z,68.10
2019-02-21T13:57:36.669Z,65.80
2019-02-21T14:00:17.167Z,65.20
2019-02-21T14:02:45.620Z,65.50
2019-02-21T14:05:14.197Z,66.90
2019-02-21T14:07:42.633Z,68.20
2019-02-21T14:10:12.998Z,68.90
2019-02-21T14:12:41.402Z,69.70
2019-02-21T14:15:13.030Z,71.60
2019-02-21T14:17:41.654Z,72.70
2019-02-21T14:20:10.198Z,74.00
2019-02-21T14:22:38.618Z,74.20
2019-02-21T14:25:09.818Z,77.40
2019-02-21T14:27:38.209Z,77.20
2019-02-21T14:30:13.257Z,81.10
2019-02-21T14:32:42.170Z,82.50
2019-02-21T14:35:12.123Z,83.90
2019-02-21T14:37:40.535Z,83.60
2019-02-21T14:40:13.521Z,83.20
2019-02-21T14:42:42.021Z,85.00
2019-02-21T14:45:18.705Z,84.60
2019-02-21T14:47:47.126Z,85.00
2019-02-21T14:50:15.528Z,86.00
2019-02-21T14:52:43.999Z,84.80
2019-02-21T14:55:14.509Z,86.60
2019-02-21T14:57:43.548Z,87.00
2019-02-21T15:00:22.929Z,86.80
2019-02-21T15:02:51.326Z,87.80
2019-02-21T15:05:20.221Z,89.40
2019-02-21T15:07:49.761Z,90.20
2019-02-21T15:10:18.206Z,91.10
2019-02-21T15:12:46.698Z,91.40
2019-02-21T15:15:17.391Z,92.60
2019-02-21T15:17:45.795Z,92.80
2019-02-21T15:20:15.842Z,93.60
2019-02-21T15:22:44.449Z,93.70
2019-02-21T15:25:12.848Z,94.20
2019-02-21T15:27:41.461Z,94.10
2019-02-21T15:30:13.174Z,94.10
2019-02-21T15:32:41.601Z,94.20
2019-02-21T15:35:10.371Z,94.10
2019-02-21T15:37:38.922Z,94.40
2019-02-21T15:40:09.526Z,94.50
2019-02-21T15:42:37.925Z,94.50
2019-02-21T15:45:09.794Z,94.50
2019-02-21T15:47:38.262Z,94.50
2019-02-21T15:50:10.626Z,94.60
2019-02-21T15:52:39.080Z,94.70
2019-02-21T15:55:12.686Z,94.80
2019-02-21T15:57:40.278Z,94.60
2019-02-21T16:00:12.058Z,94.20
2019-02-21T16:02:40.468Z,94.00
2019-02-21T16:05:09.359Z,94.10
2019-02-21T16:07:37.813Z,93.90
2019-02-21T16:10:09.640Z,93.80
2019-02-21T16:12:38.312Z,94.20
2019-02-21T16:15:10.439Z,94.10
2019-02-21T16:17:40.196Z,94.30
2019-02-21T16:20:12.042Z,94.30
2019-02-21T16:22:40.459Z,94.50
2019-02-21T16:25:11.911Z,94.50
2019-02-21T16:27:40.314Z,94.90
2019-02-21T16:30:12.561Z,95.20
2019-02-21T16:32:40.536Z,95.10
2019-02-21T16:35:13.657Z,94.90
2019-02-21T16:37:42.175Z,95.00
2019-02-21T16:40:17.917Z,95.10
2019-02-21T16:42:46.616Z,94.90
2019-02-21T16:45:16.971Z,94.80
2019-02-21T16:47:45.397Z,94.70
2019-02-21T16:50:14.805Z,94.90
2019-02-21T16:52:43.230Z,95.10
2019-02-21T16:55:14.277Z,95.00
2019-02-21T16:57:42.942Z,95.00
2019-02-21T17:00:16.321Z,95.10
2019-02-21T17:02:44.813Z,95.00
2019-02-21T17:05:14.085Z,95.10
2019-02-21T17:07:42.667Z,95.30
2019-02-21T17:10:13.518Z,95.60
2019-02-21T17:12:41.922Z,95.60
2019-02-21T17:15:14.945Z,95.40
2019-02-21T17:17:43.540Z,95.70
2019-02-21T17:20:19.148Z,95.90
2019-02-21T17:22:47.550Z,96.00
2019-02-21T17:25:16.891Z,96.10
2019-02-21T17:27:46.050Z,95.70
2019-02-21T17:30:16.407Z,95.70
2019-02-21T17:32:44.999Z,95.80
2019-02-21T17:35:13.875Z,95.90
2019-02-21T17:37:42.287Z,95.90
2019-02-21T17:40:19.558Z,96.20
2019-02-21T17:42:47.968Z,96.60
2019-02-21T17:45:16.394Z,96.60
2019-02-21T17:47:44.840Z,96.70
2019-02-21T17:50:15.479Z,97.10
2019-02-21T17:52:43.886Z,97.20
2019-02-21T17:55:12.554Z,97.40
2019-02-21T17:57:41.042Z,97.40
2019-02-21T18:00:31.290Z,97.40
2019-02-21T18:02:59.704Z,97.60
2019-02-21T18:05:28.140Z,97.80
2019-02-21T18:07:56.550Z,97.90
2019-02-21T18:10:24.994Z,98.10
2019-02-21T18:12:53.402Z,98.00
2019-02-21T18:15:21.806Z,97.90
2019-02-21T18:17:50.262Z,98.10
2019-02-21T18:20:18.669Z,98.00
2019-02-21T18:22:47.084Z,98.00
2019-02-21T18:25:30.685Z,98.10
2019-02-21T18:27:59.139Z,98.20
2019-02-21T18:30:27.561Z,98.00
2019-02-21T18:32:56.064Z,98.20
2019-02-21T18:35:24.553Z,98.40
2019-02-21T18:37:52.953Z,98.40
2019-02-21T18:40:26.291Z,98.50
2019-02-21T18:42:54.697Z,98.60
2019-02-21T18:45:23.143Z,98.60
2019-02-21T18:47:51.728Z,98.60
2019-02-21T18:50:20.162Z,98.70
2019-02-21T18:52:48.794Z,99.20
2019-02-21T18:55:17.219Z,99.00
2019-02-21T18:57:45.689Z,99.30
2019-02-21T19:00:20.126Z,99.40
2019-02-21T19:02:48.527Z,99.60
2019-02-21T19:05:16.950Z,99.80
2019-02-21T19:07:45.396Z,99.40
2019-02-21T19:10:16.538Z,99.30
2019-02-21T19:12:44.945Z,99.20
2019-02-21T19:15:14.327Z,99.50
2019-02-21T19:17:42.970Z,99.30
2019-02-21T19:20:15.589Z,99.40
2019-02-21T19:22:44.047Z,99.50
2019-02-21T19:25:13.447Z,99.60
2019-02-21T19:27:41.856Z,98.90
2019-02-21T19:30:31.517Z,98.90
2019-02-21T19:32:59.945Z,99.00
2019-02-21T19:35:28.396Z,98.80
2019-02-21T19:37:56.849Z,99.20
2019-02-21T19:40:25.257Z,99.30
2019-02-21T19:42:53.671Z,99.20
2019-02-21T19:45:22.120Z,99.20
2019-02-21T19:47:50.533Z,99.30
2019-02-21T19:50:18.933Z,99.30
2019-02-21T19:52:47.377Z,99.30
2019-02-21T19:55:15.905Z,99.40
2019-02-21T19:57:44.585Z,99.40
2019-02-21T20:00:26.731Z,99.30
2019-02-21T20:02:55.502Z,99.10
2019-02-21T20:05:24.148Z,99.00
2019-02-21T20:07:52.690Z,99.00
2019-02-21T20:10:21.171Z,99.10
2019-02-21T20:12:49.624Z,99.40
2019-02-21T20:15:18.301Z,99.30
2019-02-21T20:17:46.708Z,99.50
2019-02-21T20:20:20.964Z,99.50
2019-02-21T20:22:49.387Z,99.40
2019-02-21T20:25:17.867Z,99.40
2019-02-21T20:27:46.315Z,99.30
2019-02-21T20:30:17.442Z,99.30
2019-02-21T20:32:45.836Z,99.20
2019-02-21T20:35:14.763Z,99.20
2019-02-21T20:37:43.240Z,99.10
2019-02-21T20:40:12.517Z,99.10
2019-02-21T20:42:41.231Z,99.20
2019-02-21T20:45:13.625Z,99.20
2019-02-21T20:47:42.073Z,99.20
2019-02-21T20:50:12.824Z,99.10
2019-02-21T20:52:41.395Z,99.00
2019-02-21T20:55:12.473Z,98.90
2019-02-21T20:57:41.072Z,99.00
2019-02-21T21:00:14.645Z,98.90
2019-02-21T21:02:43.090Z,99.00
2019-02-21T21:05:11.774Z,98.70
2019-02-21T21:07:40.177Z,98.90
2019-02-21T21:10:14.323Z,98.90
2019-02-21T21:12:42.733Z,99.10
2019-02-21T21:15:13.177Z,98.70
2019-02-21T21:17:41.802Z,98.80
2019-02-21T21:20:16.988Z,99.00
2019-02-21T21:22:44.491Z,99.20
2019-02-21T21:25:15.815Z,99.20
2019-02-21T21:27:44.314Z,99.00
2019-02-21T21:30:15.341Z,99.10
2019-02-21T21:32:43.988Z,99.00
2019-02-21T21:35:12.928Z,99.30
2019-02-21T21:37:41.328Z,98.90
2019-02-21T21:40:15.414Z,98.90
2019-02-21T21:42:43.864Z,99.20
2019-02-21T21:45:14.816Z,99.20
2019-02-21T21:47:43.251Z,99.20
2019-02-21T21:50:14.743Z,99.00
2019-02-21T21:52:43.240Z,98.90
2019-02-21T21:55:11.699Z,99.00
2019-02-21T21:57:40.099Z,99.20
2019-02-21T22:00:14.653Z,99.20
2019-02-21T22:02:43.206Z,99.20
2019-02-21T22:05:11.780Z,99.00
2019-02-21T22:07:40.202Z,99.30
2019-02-21T22:10:11.697Z,99.50
2019-02-21T22:12:40.164Z,99.70
2019-02-21T22:15:11.332Z,99.70
2019-02-21T22:17:42.101Z,99.60
2019-02-21T22:20:10.024Z,99.70
2019-02-21T22:22:38.453Z,99.30
2019-02-21T22:25:10.322Z,99.50
2019-02-21T22:27:38.761Z,99.70
2019-02-21T22:30:13.599Z,99.40
2019-02-21T22:32:42.026Z,99.80
2019-02-21T22:35:10.501Z,98.90
2019-02-21T22:37:39.151Z,98.90
2019-02-21T22:40:12.714Z,98.90
2019-02-21T22:42:41.145Z,98.50
2019-02-21T22:45:10.480Z,98.50
2019-02-21T22:47:38.890Z,98.70
2019-02-21T22:50:15.441Z,98.70
2019-02-21T22:52:43.874Z,98.90
2019-02-21T22:55:12.313Z,99.10
2019-02-21T22:57:40.764Z,98.80
2019-02-21T23:00:36.692Z,99.00
2019-02-21T23:03:08.101Z,98.80
2019-02-21T23:06:02.397Z,99.10
2019-02-21T23:08:42.894Z,99.50
2019-02-21T23:11:11.442Z,99.80
2019-02-21T23:13:39.994Z,99.90
2019-02-21T23:16:08.403Z,99.90
2019-02-21T23:18:36.973Z,99.90
2019-02-21T23:21:05.556Z,99.90
2019-02-21T23:23:33.957Z,99.90
2019-02-21T23:26:02.392Z,99.90
2019-02-21T23:28:30.806Z,99.90
2019-02-21T23:30:59.257Z,99.90
2019-02-21T23:33:28.266Z,99.90
2019-02-21T23:35:56.678Z,99.90
2019-02-21T23:38:25.082Z,99.90
2019-02-21T23:40:53.509Z,99.90
2019-02-21T23:43:21.916Z,99.90
2019-02-21T23:45:50.366Z,99.90
2019-02-21T23:48:18.951Z,99.90
2019-02-21T23:50:47.349Z,99.90
2019-02-21T23:53:15.866Z,99.90
2019-02-21T23:55:44.282Z,99.90
2019-02-21T23:58:12.690Z,99.90
